createdAt,value
2019-01-15T00:02:38.665Z,53.00
2019-01-15T00:05:43.494Z,53.70
2019-01-15T00:08:48.297Z,53.50
2019-01-15T00:11:53.901Z,53.70
2019-01-15T00:14:58.740Z,54.00
2019-01-15T00:18:03.670Z,54.00
2019-01-15T00:21:08.547Z,53.90
2019-01-15T00:24:13.407Z,53.80
2019-01-15T00:27:18.273Z,53.70
2019-01-15T00:30:23.086Z,54.10
2019-01-15T00:33:27.904Z,53.90
2019-01-15T00:36:32.709Z,54.20
2019-01-15T00:39:37.540Z,54.10
2019-01-15T00:42:42.378Z,53.80
2019-01-15T00:45:47.934Z,53.80
2019-01-15T00:48:53.272Z,53.70
2019-01-15T00:51:58.095Z,53.80
2019-01-15T00:55:02.953Z,53.50
2019-01-15T00:58:07.799Z,54.00
2019-01-15T01:01:12.705Z,54.40
2019-01-15T01:04:17.540Z,54.30
2019-01-15T01:07:22.437Z,53.50
2019-01-15T01:10:27.287Z,53.90
2019-01-15T01:13:32.113Z,54.20
2019-01-15T01:16:36.973Z,53.80
2019-01-15T01:19:42.265Z,54.10
2019-01-15T01:22:47.142Z,53.60
2019-01-15T01:25:51.946Z,54.00
2019-01-15T01:28:56.781Z,54.00
2019-01-15T01:32:01.630Z,54.10
2019-01-15T01:35:07.046Z,54.00
2019-01-15T01:38:11.849Z,53.60
2019-01-15T01:41:16.711Z,54.10
2019-01-15T01:44:21.518Z,54.10
2019-01-15T01:47:26.370Z,53.50
2019-01-15T01:50:31.217Z,52.90
2019-01-15T01:53:36.057Z,52.70
2019-01-15T01:56:40.949Z,52.60
2019-01-15T01:59:45.773Z,53.10
2019-01-15T02:02:50.611Z,53.20
2019-01-15T02:05:56.226Z,53.30
2019-01-15T02:09:01.103Z,53.50
2019-01-15T02:12:07.746Z,53.50
2019-01-15T02:15:15.529Z,53.40
2019-01-15T02:18:20.397Z,53.10
2019-01-15T02:21:25.234Z,53.20
2019-01-15T02:24:30.329Z,53.40
2019-01-15T02:27:35.614Z,53.00
2019-01-15T02:30:40.435Z,53.40
2019-01-15T02:33:45.272Z,53.10
2019-01-15T02:36:50.096Z,53.60
2019-01-15T02:39:54.906Z,53.30
2019-01-15T02:42:59.787Z,52.80
2019-01-15T02:46:04.733Z,52.20
2019-01-15T02:49:09.558Z,52.10
2019-01-15T02:52:14.377Z,52.20
2019-01-15T02:55:19.202Z,52.10
2019-01-15T02:58:24.060Z,52.20
2019-01-15T03:01:28.982Z,52.40
2019-01-15T03:04:33.910Z,52.30
2019-01-15T03:07:38.752Z,52.40
2019-01-15T03:10:43.658Z,52.60
2019-01-15T03:13:48.495Z,52.50
2019-01-15T03:16:53.314Z,53.10
2019-01-15T03:19:58.163Z,53.30
2019-01-15T03:23:03.020Z,53.70
2019-01-15T03:26:07.915Z,53.70
2019-01-15T03:29:12.756Z,54.10
2019-01-15T03:32:17.689Z,54.30
2019-01-15T03:35:22.532Z,54.70
2019-01-15T03:38:27.386Z,54.60
2019-01-15T03:41:32.221Z,55.60
2019-01-15T03:44:37.045Z,55.90
2019-01-15T03:47:41.871Z,55.90
2019-01-15T03:50:46.717Z,56.00
2019-01-15T03:53:51.545Z,56.20
2019-01-15T03:56:56.974Z,56.40
2019-01-15T04:00:01.909Z,56.20
2019-01-15T04:03:06.801Z,56.30
2019-01-15T04:06:11.609Z,56.70
2019-01-15T04:09:16.459Z,56.20
2019-01-15T04:12:21.298Z,56.30
2019-01-15T04:15:26.131Z,56.20
2019-01-15T04:18:32.001Z,55.80
2019-01-15T04:21:36.849Z,56.00
2019-01-15T04:24:41.758Z,56.10
2019-01-15T04:27:46.641Z,56.30
2019-01-15T04:30:51.527Z,56.80
2019-01-15T04:33:56.340Z,57.50
2019-01-15T04:37:01.165Z,57.90
2019-01-15T04:40:11.667Z,58.50
2019-01-15T04:43:19.863Z,58.40
2019-01-15T04:46:23.089Z,58.20
2019-01-15T04:49:28.008Z,58.20
2019-01-15T04:52:32.925Z,58.30
2019-01-15T04:55:37.721Z,58.60
2019-01-15T04:58:42.557Z,58.80
2019-01-15T05:01:47.408Z,58.70
2019-01-15T05:04:52.270Z,58.60
2019-01-15T05:07:57.155Z,58.50
2019-01-15T05:11:01.985Z,58.30
2019-01-15T05:14:06.803Z,58.00
2019-01-15T05:17:11.755Z,57.80
2019-01-15T05:20:19.734Z,57.90
2019-01-15T05:23:24.591Z,57.80
2019-01-15T05:26:29.481Z,57.70
2019-01-15T05:29:34.289Z,57.50
2019-01-15T05:32:39.132Z,57.40
2019-01-15T05:35:44.043Z,57.10
2019-01-15T05:38:48.893Z,57.20
2019-01-15T05:41:53.735Z,56.90
2019-01-15T05:44:59.619Z,56.60
2019-01-15T05:48:06.724Z,56.80
2019-01-15T05:51:13.196Z,56.50
2019-01-15T05:54:18.102Z,56.10
2019-01-15T05:57:22.926Z,56.00
2019-01-15T06:00:27.763Z,55.80
2019-01-15T06:03:32.593Z,55.60
2019-01-15T06:06:37.434Z,55.60
2019-01-15T06:09:42.286Z,55.40
2019-01-15T06:12:47.116Z,55.00
2019-01-15T06:15:51.953Z,54.80
2019-01-15T06:18:57.166Z,54.50
2019-01-15T06:22:01.982Z,54.20
2019-01-15T06:25:08.346Z,54.30
2019-01-15T06:28:13.179Z,54.10
2019-01-15T06:31:18.505Z,53.50
2019-01-15T06:34:23.371Z,54.00
2019-01-15T06:37:28.194Z,53.20
2019-01-15T06:40:33.022Z,52.80
2019-01-15T06:43:37.837Z,53.00
2019-01-15T06:46:42.695Z,52.80
2019-01-15T06:49:47.499Z,52.80
2019-01-15T06:52:52.724Z,52.80
2019-01-15T06:55:57.529Z,52.60
2019-01-15T06:59:02.380Z,52.50
2019-01-15T07:02:07.264Z,52.50
2019-01-15T07:05:12.152Z,52.80
2019-01-15T07:08:16.977Z,52.10
2019-01-15T07:11:21.796Z,52.40
2019-01-15T07:14:26.644Z,53.40
2019-01-15T07:17:31.735Z,52.80
2019-01-15T07:20:36.566Z,52.40
2019-01-15T07:23:41.385Z,52.50
2019-01-15T07:26:46.238Z,52.80
2019-01-15T07:29:51.070Z,52.60
2019-01-15T07:32:55.900Z,52.20
2019-01-15T07:36:00.738Z,52.30
2019-01-15T07:39:07.862Z,52.50
2019-01-15T07:42:12.679Z,52.60
2019-01-15T07:45:17.494Z,53.30
2019-01-15T07:48:22.357Z,53.00
2019-01-15T07:51:27.198Z,53.30
2019-01-15T07:54:32.025Z,53.30
2019-01-15T07:57:37.684Z,53.40
2019-01-15T08:00:42.587Z,53.50
2019-01-15T08:03:47.418Z,53.20
2019-01-15T08:06:52.273Z,53.50
2019-01-15T08:09:57.188Z,53.70
2019-01-15T08:13:02.039Z,53.90
2019-01-15T08:16:07.915Z,54.00
2019-01-15T08:19:12.844Z,54.70
2019-01-15T08:22:17.744Z,55.00
2019-01-15T08:25:23.517Z,55.50
2019-01-15T08:28:28.602Z,55.90
2019-01-15T08:31:33.406Z,56.20
2019-01-15T08:34:38.254Z,55.80
2019-01-15T08:37:43.097Z,55.90
2019-01-15T08:40:47.975Z,56.70
2019-01-15T08:43:52.814Z,56.10
2019-01-15T08:46:57.666Z,56.50
2019-01-15T08:50:02.677Z,56.80
2019-01-15T08:53:07.531Z,56.80
2019-01-15T08:56:12.719Z,57.00
2019-01-15T08:59:17.549Z,57.20
2019-01-15T09:02:22.402Z,57.60
2019-01-15T09:05:27.211Z,57.60
2019-01-15T09:08:32.123Z,58.00
2019-01-15T09:11:36.938Z,58.90
2019-01-15T09:14:41.755Z,59.30
2019-01-15T09:17:46.585Z,59.40
2019-01-15T09:20:51.413Z,60.40
2019-01-15T09:23:56.255Z,60.60
2019-01-15T09:27:01.067Z,60.80
2019-01-15T09:30:20.279Z,61.10
2019-01-15T09:33:25.089Z,62.30
2019-01-15T09:36:29.930Z,62.00
2019-01-15T09:39:34.751Z,62.10
2019-01-15T09:42:39.606Z,61.70
2019-01-15T09:45:44.586Z,61.80
2019-01-15T09:48:49.423Z,61.70
2019-01-15T09:51:54.249Z,61.50
2019-01-15T09:54:59.110Z,61.80
2019-01-15T09:58:04.758Z,62.30
2019-01-15T10:01:09.651Z,62.80
2019-01-15T10:04:14.476Z,63.40
2019-01-15T10:07:19.354Z,63.40
2019-01-15T10:10:24.194Z,63.70
2019-01-15T10:13:29.055Z,63.80
2019-01-15T10:16:34.141Z,63.90
2019-01-15T10:19:38.992Z,63.90
2019-01-15T10:22:43.942Z,63.30
2019-01-15T10:25:48.811Z,63.80
2019-01-15T10:28:53.662Z,63.90
2019-01-15T10:32:17.707Z,64.00
2019-01-15T10:35:34.594Z,64.00
2019-01-15T10:38:39.438Z,63.20
2019-01-15T10:41:44.259Z,63.10
2019-01-15T10:44:49.091Z,63.00
2019-01-15T10:47:53.996Z,62.70
2019-01-15T10:50:58.911Z,63.40
2019-01-15T10:54:03.887Z,62.10
2019-01-15T10:57:08.749Z,62.30
2019-01-15T11:00:14.423Z,61.40
2019-01-15T11:03:19.273Z,61.60
2019-01-15T11:06:24.093Z,60.80
2019-01-15T11:09:28.938Z,60.30
2019-01-15T11:12:33.820Z,60.70
2019-01-15T11:15:43.128Z,60.40
2019-01-15T11:18:45.152Z,60.80
2019-01-15T11:21:49.985Z,60.40
2019-01-15T11:24:55.751Z,60.50
2019-01-15T11:28:00.583Z,60.00
2019-01-15T11:31:05.442Z,60.20
2019-01-15T11:34:10.403Z,60.60
2019-01-15T11:37:15.235Z,60.60
2019-01-15T11:40:20.159Z,60.40
2019-01-15T11:43:25.786Z,61.30
2019-01-15T11:46:30.658Z,62.20
2019-01-15T11:49:35.498Z,62.40
2019-01-15T11:52:40.353Z,62.10
2019-01-15T11:55:45.223Z,62.70
2019-01-15T11:58:50.850Z,63.70
2019-01-15T12:01:56.332Z,65.00
2019-01-15T12:05:08.622Z,65.70
2019-01-15T12:08:23.874Z,66.30
2019-01-15T12:11:36.082Z,66.50
2019-01-15T12:14:48.621Z,66.20
2019-01-15T12:18:11.097Z,65.60
2019-01-15T12:21:17.594Z,66.00
2019-01-15T12:24:29.981Z,65.50
2019-01-15T12:27:45.474Z,65.40
2019-01-15T12:30:54.661Z,65.70
2019-01-15T12:34:17.322Z,64.80
2019-01-15T12:37:41.912Z,64.70
2019-01-15T12:40:49.895Z,65.60
2019-01-15T12:44:14.186Z,65.00
2019-01-15T12:47:20.687Z,66.40
2019-01-15T12:50:46.787Z,66.70
2019-01-15T12:53:59.122Z,67.30
2019-01-15T12:57:18.834Z,67.30
2019-01-15T13:00:36.162Z,67.30
2019-01-15T13:03:45.319Z,67.30
2019-01-15T13:06:58.309Z,67.50
2019-01-15T13:10:17.686Z,69.10
2019-01-15T13:13:40.278Z,69.80
2019-01-15T13:16:46.745Z,70.20
2019-01-15T13:20:04.208Z,70.40
2019-01-15T13:23:22.787Z,70.40
2019-01-15T13:26:44.285Z,70.30
2019-01-15T13:29:59.854Z,70.70
2019-01-15T13:33:18.470Z,71.70
2019-01-15T13:36:27.922Z,72.00
2019-01-15T13:39:34.430Z,72.10
2019-01-15T13:42:40.935Z,71.90
2019-01-15T13:46:05.274Z,71.80
2019-01-15T13:49:14.492Z,72.20
2019-01-15T13:52:21.100Z,72.00
2019-01-15T13:55:36.823Z,71.90
2019-01-15T13:58:52.248Z,71.90
2019-01-15T14:02:01.667Z,71.80
2019-01-15T14:05:09.458Z,72.30
2019-01-15T14:08:31.871Z,72.40
2019-01-15T14:11:53.381Z,72.10
2019-01-15T14:15:16.030Z,71.90
2019-01-15T14:18:22.606Z,71.80
2019-01-15T14:21:45.098Z,72.20
2019-01-15T14:24:58.301Z,71.60
2019-01-15T14:28:08.574Z,72.60
2019-01-15T14:31:20.796Z,72.40
2019-01-15T14:34:43.560Z,71.90
2019-01-15T14:38:08.143Z,73.00
2019-01-15T14:41:17.330Z,72.80
2019-01-15T14:44:26.546Z,73.00
2019-01-15T14:47:41.979Z,72.80
2019-01-15T14:51:04.709Z,72.60
2019-01-15T14:54:27.235Z,72.90
2019-01-15T14:57:45.692Z,72.90
2019-01-15T15:01:08.016Z,73.30
2019-01-15T15:04:23.230Z,73.30
2019-01-15T15:07:38.511Z,73.00
2019-01-15T15:10:45.047Z,72.90
2019-01-15T15:13:51.785Z,72.90
2019-01-15T15:16:58.992Z,73.00
2019-01-15T15:20:09.869Z,72.90
2019-01-15T15:23:22.331Z,73.30
2019-01-15T15:26:28.925Z,73.20
2019-01-15T15:29:39.070Z,73.00
2019-01-15T15:32:45.879Z,72.60
2019-01-15T15:35:55.189Z,72.90
2019-01-15T15:39:10.444Z,71.80
2019-01-15T15:42:26.185Z,72.30
2019-01-15T15:45:44.745Z,72.30
2019-01-15T15:48:57.543Z,72.60
2019-01-15T15:52:19.414Z,72.90
2019-01-15T15:55:26.190Z,73.10
2019-01-15T15:58:38.351Z,72.70
2019-01-15T16:01:50.869Z,72.90
2019-01-15T16:04:57.486Z,72.60
2019-01-15T16:08:09.642Z,73.00
2019-01-15T16:11:22.101Z,72.30
2019-01-15T16:14:40.581Z,72.70
2019-01-15T16:17:52.734Z,72.60
2019-01-15T16:21:02.152Z,73.10
2019-01-15T16:24:23.738Z,73.30
2019-01-15T16:27:35.966Z,72.60
2019-01-15T16:30:42.439Z,73.50
2019-01-15T16:33:49.896Z,73.10
2019-01-15T16:37:12.775Z,73.10
2019-01-15T16:40:22.403Z,73.00
2019-01-15T16:43:28.877Z,72.80
2019-01-15T16:46:51.649Z,72.40
2019-01-15T16:49:58.129Z,71.40
2019-01-15T16:53:04.673Z,71.80
2019-01-15T16:56:26.546Z,71.60
2019-01-15T16:59:38.758Z,71.20
2019-01-15T17:02:57.695Z,71.50
2019-01-15T17:06:04.267Z,71.60
2019-01-15T17:09:16.946Z,71.80
2019-01-15T17:12:29.354Z,71.60
2019-01-15T17:15:52.168Z,72.60
2019-01-15T17:19:14.967Z,72.30
2019-01-15T17:22:24.361Z,72.00
2019-01-15T17:25:40.914Z,72.30
2019-01-15T17:28:56.117Z,72.50
2019-01-15T17:32:02.614Z,72.20
2019-01-15T17:35:18.057Z,71.80
2019-01-15T17:38:39.250Z,72.50
2019-01-15T17:41:51.622Z,71.30
2019-01-15T17:45:04.034Z,71.50
2019-01-15T17:48:10.894Z,71.30
2019-01-15T17:51:23.313Z,71.50
2019-01-15T17:54:45.895Z,71.20
2019-01-15T17:57:55.268Z,70.30
2019-01-15T18:01:17.909Z,70.80
2019-01-15T18:04:40.767Z,70.50
2019-01-15T18:07:59.090Z,70.50
2019-01-15T18:11:21.851Z,70.70
2019-01-15T18:14:28.360Z,71.40
2019-01-15T18:17:50.839Z,71.40
2019-01-15T18:21:06.403Z,71.90
2019-01-15T18:24:16.330Z,72.10
2019-01-15T18:27:22.794Z,72.60
2019-01-15T18:30:31.964Z,72.60
2019-01-15T18:33:41.138Z,72.90
2019-01-15T18:37:03.673Z,72.80
2019-01-15T18:40:20.622Z,72.20
2019-01-15T18:43:30.133Z,72.30
2019-01-15T18:46:39.522Z,72.30
2019-01-15T18:49:48.920Z,72.00
2019-01-15T18:53:12.193Z,72.20
2019-01-15T18:56:21.605Z,72.00
2019-01-15T18:59:28.061Z,71.60
2019-01-15T19:02:49.351Z,72.00
2019-01-15T19:06:01.354Z,71.30
2019-01-15T19:09:23.818Z,71.80
2019-01-15T19:12:46.350Z,71.50
2019-01-15T19:15:55.983Z,71.50
2019-01-15T19:19:02.494Z,71.20
2019-01-15T19:22:11.676Z,70.90
2019-01-15T19:25:27.194Z,70.90
2019-01-15T19:28:45.429Z,71.00
2019-01-15T19:31:51.924Z,70.90
2019-01-15T19:34:58.544Z,71.10
2019-01-15T19:38:05.758Z,71.90
2019-01-15T19:41:30.148Z,72.40
2019-01-15T19:44:36.577Z,72.00
2019-01-15T19:48:00.967Z,73.10
2019-01-15T19:51:16.155Z,73.50
2019-01-15T19:54:31.179Z,73.30
2019-01-15T19:57:43.712Z,73.50
2019-01-15T20:00:51.108Z,73.20
2019-01-15T20:04:00.715Z,73.50
2019-01-15T20:07:13.415Z,73.50
2019-01-15T20:10:20.010Z,73.70
2019-01-15T20:13:26.675Z,73.40
2019-01-15T20:16:35.884Z,73.30
2019-01-15T20:19:45.066Z,73.50
2019-01-15T20:22:57.984Z,73.70
2019-01-15T20:26:07.400Z,74.00
2019-01-15T20:29:31.776Z,74.10
2019-01-15T20:32:55.900Z,75.00
2019-01-15T20:36:11.231Z,75.30
2019-01-15T20:39:23.698Z,75.80
2019-01-15T20:42:38.958Z,75.70
2019-01-15T20:46:01.377Z,75.80
2019-01-15T20:49:24.013Z,76.70
2019-01-15T20:52:36.538Z,77.20
2019-01-15T20:56:01.209Z,77.10
2019-01-15T20:59:08.214Z,77.30
2019-01-15T21:02:14.681Z,77.30
2019-01-15T21:05:21.213Z,77.70
2019-01-15T21:08:30.505Z,77.70
2019-01-15T21:11:42.842Z,77.90
2019-01-15T21:14:50.230Z,77.30
2019-01-15T21:17:59.631Z,77.30
2019-01-15T21:21:06.293Z,77.30
2019-01-15T21:24:15.707Z,76.80
2019-01-15T21:27:25.101Z,76.30
2019-01-15T21:30:50.703Z,76.60
2019-01-15T21:34:04.847Z,76.50
2019-01-15T21:37:14.001Z,76.70
2019-01-15T21:40:36.474Z,76.60
2019-01-15T21:43:59.042Z,76.80
2019-01-15T21:47:05.630Z,76.90
2019-01-15T21:50:14.846Z,76.50
2019-01-15T21:53:24.022Z,76.40
2019-01-15T21:56:33.442Z,76.80
2019-01-15T21:59:40.007Z,76.90
2019-01-15T22:03:01.328Z,76.70
2019-01-15T22:06:25.415Z,76.50
2019-01-15T22:09:48.025Z,76.60
2019-01-15T22:13:10.683Z,77.00
2019-01-15T22:16:25.868Z,77.50
2019-01-15T22:19:32.351Z,77.20
2019-01-15T22:22:55.090Z,76.70
2019-01-15T22:26:10.361Z,77.30
2019-01-15T22:29:26.078Z,77.60
2019-01-15T22:32:32.540Z,77.50
2019-01-15T22:35:53.841Z,77.30
2019-01-15T22:39:00.303Z,76.60
2019-01-15T22:42:09.324Z,76.10
2019-01-15T22:45:27.570Z,76.10
2019-01-15T22:48:50.073Z,75.80
2019-01-15T22:51:56.533Z,75.10
2019-01-15T22:55:05.979Z,75.40
2019-01-15T22:58:27.354Z,75.00
2019-01-15T23:01:34.146Z,74.80
2019-01-15T23:04:56.671Z,74.80
2019-01-15T23:08:06.174Z,74.40
2019-01-15T23:11:21.365Z,73.90
2019-01-15T23:14:27.853Z,73.70
2019-01-15T23:17:52.419Z,73.20
2019-01-15T23:20:58.901Z,72.70
2019-01-15T23:24:05.466Z,73.00
2019-01-15T23:27:12.980Z,73.10
2019-01-15T23:30:21.975Z,72.80
2019-01-15T23:33:37.261Z,72.30
2019-01-15T23:36:59.910Z,72.80
2019-01-15T23:40:08.509Z,72.10
2019-01-15T23:43:31.983Z,72.30
2019-01-15T23:46:38.479Z,72.00
2019-01-15T23:49:47.891Z,72.10
2019-01-15T23:53:06.319Z,71.40
2019-01-15T23:56:18.651Z,71.70
2019-01-15T23:59:25.150Z,71.60
